Pagina principale
METAR-TAF:

METAR-TAF

Aeroporti :

Aeroporto di Pantelleria

Pantelleria, Italia

latitudine: 36-49N, longitudine: 011-58E, altezza: 191 m

Osservazione

Il bollettino è stato emesso 1 ora e 23 minuti fa, alle 17:55 UTC
Vento 9 kt da ovest/nord-ovest
Temperature 22°C
Umidità 94%
Pressione 1015 hPa
Visibilità 10 km o più
Poco nuvoloso ad un'altezza di 1000 ft

METAR: LICG 231755Z 29009KT 9999 FEW010 22/21 Q1015 RMK FEW VIS MIN 9999 WIND THR08 27007KT WIND THR21 30009KT BLU

Ora: 21:18 (19:18 UTC)

Previsione

Il bollettino è stato emesso 2 ore e 18 minuti fa, alle 17:00 UTC
Previsione valida dal 23 alle 18 UTC al 24 alle 03 UTC
Vento 7 kt da ovest
Visibilità 10 km o più
nessuna nube inferiore a 1500 m e nessun cumulonembo

TAF: LICG 231700Z 2318/2403 27007KT CAVOK

Osservazioni e previsioni meteorologiche di più di 4000 aeroporti (messaggi METAR e TAF).

Le stazioni disponibili sono rappresentate dai dischi gialli e rossi sulla carta.

Puntare il mouse per vedere il nome della stazione.

Clicca sopra per visualizzare le osservazioni e previsioni meteorologiche.

Per cambiare la mappa : fare clic sui pulsanti verdi con una croce nera per ingrandire, il pulsante verde con un trattino per diminuire, o sulla freccia verde per le mappe adiacenti.


METAR-TAF: